createdAt,value
2023-01-05T00:01:09.708Z,10.10
2023-01-05T00:03:49.671Z,11.18
2023-01-05T00:06:22.028Z,11.88
2023-01-05T00:08:52.780Z,9.08
2023-01-05T00:11:44.383Z,9.83
2023-01-05T00:14:41.500Z,9.43
2023-01-05T00:17:32.275Z,9.70
2023-01-05T00:20:21.214Z,11.78
2023-01-05T00:23:12.172Z,11.80
2023-01-05T00:25:44.276Z,10.58
2023-01-05T00:28:15.057Z,11.93
2023-01-05T00:30:48.423Z,10.68
2023-01-05T00:33:20.152Z,9.55
2023-01-05T00:35:50.869Z,9.73
2023-01-05T00:38:21.551Z,9.48
2023-01-05T00:40:52.952Z,9.48
2023-01-05T00:43:23.639Z,9.60
2023-01-05T00:45:54.452Z,8.55
2023-01-05T00:48:25.225Z,9.28
2023-01-05T00:50:56.065Z,7.50
2023-01-05T00:53:26.860Z,7.30
2023-01-05T00:56:01.655Z,7.53
2023-01-05T00:58:32.507Z,8.00
2023-01-05T01:01:03.715Z,8.85
2023-01-05T01:03:35.023Z,8.00
2023-01-05T01:06:08.289Z,8.05
2023-01-05T01:08:38.962Z,7.90
2023-01-05T01:11:10.776Z,8.00
2023-01-05T01:13:42.125Z,8.00
2023-01-05T01:16:15.002Z,7.60
2023-01-05T01:18:47.623Z,8.43
2023-01-05T01:21:18.520Z,7.87
2023-01-05T01:23:50.911Z,8.90
2023-01-05T01:26:42.412Z,9.05
2023-01-05T01:29:14.339Z,8.68
2023-01-05T01:31:47.432Z,8.53
2023-01-05T01:34:20.599Z,8.80
2023-01-05T01:36:51.695Z,9.03
2023-01-05T01:39:22.676Z,8.18
2023-01-05T01:41:54.127Z,8.53
2023-01-05T01:44:53.070Z,7.58
2023-01-05T01:47:30.987Z,6.92
2023-01-05T01:50:04.031Z,7.47
2023-01-05T01:52:35.882Z,7.33
2023-01-05T01:55:08.428Z,7.75
2023-01-05T01:57:41.228Z,7.53
2023-01-05T02:00:15.484Z,7.12
2023-01-05T02:02:48.830Z,6.35
2023-01-05T02:05:20.451Z,6.33
2023-01-05T02:07:52.768Z,6.25
2023-01-05T02:10:28.888Z,5.65
2023-01-05T02:13:10.968Z,5.97
2023-01-05T02:16:02.642Z,5.72
2023-01-05T02:18:39.410Z,5.45
2023-01-05T02:21:19.463Z,5.12
2023-01-05T02:23:58.625Z,6.10
2023-01-05T02:26:51.576Z,6.30
2023-01-05T02:29:25.450Z,6.25
2023-01-05T02:32:01.603Z,5.87
2023-01-05T02:34:40.718Z,6.00
2023-01-05T02:37:14.341Z,6.20
2023-01-05T02:39:47.905Z,5.85
2023-01-05T02:42:24.548Z,6.42
2023-01-05T02:44:57.842Z,5.87
2023-01-05T02:47:32.553Z,6.17
2023-01-05T02:50:09.080Z,6.50
2023-01-05T02:52:48.658Z,7.78
2023-01-05T02:55:22.784Z,6.90
2023-01-05T02:57:57.911Z,9.15
2023-01-05T03:00:38.075Z,6.67
2023-01-05T03:03:11.809Z,6.75
2023-01-05T03:05:45.279Z,6.15
2023-01-05T03:08:32.267Z,6.92
2023-01-05T03:11:31.729Z,6.78
2023-01-05T03:14:23.839Z,6.85
2023-01-05T03:16:56.191Z,6.33
2023-01-05T03:19:45.199Z,7.35
2023-01-05T03:22:41.701Z,5.87
2023-01-05T03:28:19.022Z,5.87
2023-01-05T03:31:12.382Z,5.15
2023-01-05T03:34:06.268Z,4.33
2023-01-05T03:36:46.191Z,5.05
2023-01-05T03:39:20.694Z,3.58
2023-01-05T03:41:52.582Z,4.03
2023-01-05T03:44:23.541Z,4.05
2023-01-05T03:46:54.739Z,4.10
2023-01-05T03:49:28.104Z,3.80
2023-01-05T03:52:00.219Z,3.90
2023-01-05T03:54:30.989Z,3.20
2023-01-05T03:57:01.839Z,3.90
2023-01-05T03:59:34.292Z,3.15
2023-01-05T04:02:07.261Z,3.33
2023-01-05T04:04:38.427Z,3.30
2023-01-05T04:07:09.949Z,2.92
2023-01-05T04:09:40.806Z,3.40
2023-01-05T04:12:11.671Z,3.20
2023-01-05T04:14:44.007Z,2.67
2023-01-05T04:17:14.839Z,2.67
2023-01-05T04:19:46.548Z,3.10
2023-01-05T04:22:21.075Z,3.22
2023-01-05T04:24:52.178Z,2.60
2023-01-05T04:27:23.175Z,3.00
2023-01-05T04:29:54.065Z,2.92
2023-01-05T04:32:25.010Z,2.40
2023-01-05T04:34:55.904Z,2.92
2023-01-05T04:37:27.009Z,2.65
2023-01-05T04:39:59.250Z,2.52
2023-01-05T04:42:30.027Z,3.10
2023-01-05T04:45:05.332Z,4.92
2023-01-05T04:47:37.001Z,2.95
2023-01-05T04:50:28.906Z,2.98
2023-01-05T04:53:20.326Z,2.90
2023-01-05T04:55:51.778Z,3.25
2023-01-05T04:58:23.741Z,2.62
2023-01-05T05:00:54.936Z,2.75
2023-01-05T05:03:32.604Z,2.40
2023-01-05T05:05:58.708Z,3.17
2023-01-05T05:08:29.796Z,3.40
2023-01-05T05:11:02.271Z,3.65
2023-01-05T05:13:34.525Z,3.50
2023-01-05T05:16:07.232Z,3.47
2023-01-05T05:18:38.144Z,3.30
2023-01-05T05:21:18.290Z,3.40
2023-01-05T05:23:49.121Z,3.80
2023-01-05T05:26:20.461Z,3.22
2023-01-05T05:28:53.039Z,3.17
2023-01-05T05:31:24.453Z,3.33
2023-01-05T05:33:55.765Z,2.65
2023-01-05T05:36:27.227Z,2.37
2023-01-05T05:38:59.950Z,2.60
2023-01-05T05:41:30.916Z,2.67
2023-01-05T05:44:03.661Z,2.75
2023-01-05T05:46:34.409Z,2.75
2023-01-05T05:49:06.790Z,2.70
2023-01-05T05:51:37.976Z,2.60
2023-01-05T05:54:09.766Z,2.83
2023-01-05T05:56:40.673Z,2.30
2023-01-05T05:59:12.119Z,2.35
2023-01-05T06:01:42.897Z,1.90
2023-01-05T06:04:14.780Z,1.90
2023-01-05T06:06:45.946Z,2.40
2023-01-05T06:09:17.584Z,2.02
2023-01-05T06:11:48.591Z,2.12
2023-01-05T06:14:25.100Z,2.80
2023-01-05T06:16:59.075Z,2.33
2023-01-05T06:19:33.143Z,2.00
2023-01-05T06:22:04.553Z,2.10
2023-01-05T06:24:35.909Z,1.90
2023-01-05T06:27:06.854Z,2.40
2023-01-05T06:29:37.635Z,1.82
2023-01-05T06:32:10.214Z,1.90
2023-01-05T06:34:41.619Z,1.95
2023-01-05T06:37:15.564Z,1.70
2023-01-05T06:39:55.118Z,1.90
2023-01-05T06:42:26.619Z,1.85
2023-01-05T06:44:57.502Z,1.85
2023-01-05T06:47:30.673Z,1.70
2023-01-05T06:50:01.762Z,1.90
2023-01-05T06:52:34.117Z,2.08
2023-01-05T06:55:09.122Z,1.92
2023-01-05T06:57:40.901Z,1.90
2023-01-05T07:00:19.531Z,2.10
2023-01-05T07:02:49.805Z,2.65
2023-01-05T07:05:21.161Z,2.10
2023-01-05T07:07:52.799Z,2.15
2023-01-05T07:10:27.455Z,2.42
2023-01-05T07:12:58.478Z,2.40
2023-01-05T07:15:29.743Z,2.22
2023-01-05T07:18:00.482Z,2.62
2023-01-05T07:20:31.783Z,2.15
2023-01-05T07:23:02.563Z,1.90
2023-01-05T07:25:34.337Z,2.17
2023-01-05T07:28:06.446Z,1.70
2023-01-05T07:30:37.647Z,1.65
2023-01-05T07:33:08.491Z,2.00
2023-01-05T07:35:40.042Z,1.77
2023-01-05T07:38:11.545Z,2.00
2023-01-05T07:40:42.693Z,1.92
2023-01-05T07:43:13.546Z,2.55
2023-01-05T07:45:44.885Z,2.20
2023-01-05T07:48:20.226Z,2.80
2023-01-05T07:50:47.687Z,3.95
2023-01-05T07:53:18.518Z,1.50
2023-01-05T07:55:53.534Z,1.50
2023-01-05T07:58:24.327Z,2.12
2023-01-05T08:00:55.401Z,2.20
2023-01-05T08:03:27.427Z,1.60
2023-01-05T08:05:58.331Z,1.92
2023-01-05T08:08:31.964Z,1.40
2023-01-05T08:11:04.130Z,1.70
2023-01-05T08:13:52.582Z,1.60
2023-01-05T08:16:23.676Z,1.72
2023-01-05T08:18:54.967Z,1.50
2023-01-05T08:21:25.857Z,1.60
2023-01-05T08:23:58.733Z,1.80
2023-01-05T08:26:30.188Z,1.70
2023-01-05T08:29:01.063Z,2.00
2023-01-05T08:31:34.795Z,2.10
2023-01-05T08:34:06.212Z,1.82
2023-01-05T08:36:46.399Z,1.77
2023-01-05T08:39:17.615Z,2.20
2023-01-05T08:41:49.535Z,5.22
2023-01-05T08:44:20.944Z,2.45
2023-01-05T08:46:51.766Z,2.87
2023-01-05T08:49:23.422Z,3.10
2023-01-05T08:51:54.167Z,3.15
2023-01-05T08:54:25.002Z,3.00
2023-01-05T08:56:55.825Z,3.10
2023-01-05T08:59:26.653Z,3.30
2023-01-05T09:01:58.677Z,2.17
2023-01-05T09:04:29.610Z,2.70
2023-01-05T09:07:03.920Z,2.62
2023-01-05T09:09:34.627Z,2.70
2023-01-05T09:12:05.621Z,3.05
2023-01-05T09:14:38.365Z,3.02
2023-01-05T09:17:09.155Z,4.78
2023-01-05T09:19:47.356Z,2.58
2023-01-05T09:22:18.598Z,1.92
2023-01-05T09:24:50.855Z,2.20
2023-01-05T09:27:21.836Z,2.17
2023-01-05T09:29:52.854Z,2.12
2023-01-05T09:32:25.511Z,2.30
2023-01-05T09:34:56.904Z,2.30
2023-01-05T09:37:28.346Z,2.25
2023-01-05T09:39:59.482Z,2.30
2023-01-05T09:42:33.116Z,2.50
2023-01-05T09:45:08.893Z,3.30
2023-01-05T09:47:48.933Z,3.20
2023-01-05T09:50:34.370Z,3.92
2023-01-05T09:53:05.928Z,4.05
2023-01-05T09:56:00.348Z,4.55
2023-01-05T09:58:34.917Z,3.62
2023-01-05T10:01:17.020Z,3.50
2023-01-05T10:04:05.565Z,3.65
2023-01-05T10:06:24.441Z,3.22
2023-01-05T10:08:56.956Z,3.33
2023-01-05T10:11:50.564Z,3.35
2023-01-05T10:14:24.117Z,2.98
2023-01-05T10:17:30.685Z,2.92
2023-01-05T10:19:33.045Z,3.35
2023-01-05T10:22:12.596Z,3.22
2023-01-05T10:25:03.189Z,3.10
2023-01-05T10:27:39.513Z,2.92
2023-01-05T10:30:30.982Z,2.95
2023-01-05T10:33:25.298Z,3.05
2023-01-05T10:36:02.679Z,3.10
2023-01-05T10:38:42.705Z,3.35
2023-01-05T10:41:18.899Z,5.87
2023-01-05T10:43:54.989Z,4.87
2023-01-05T10:46:35.072Z,12.82
2023-01-05T10:48:58.364Z,8.40
2023-01-05T10:51:31.595Z,6.78
2023-01-05T10:54:04.018Z,6.20
2023-01-05T10:56:46.775Z,5.35
2023-01-05T10:59:18.081Z,5.25
2023-01-05T11:01:51.524Z,5.08
2023-01-05T11:04:33.836Z,5.03
2023-01-05T11:07:06.468Z,5.15
2023-01-05T11:09:40.809Z,5.47
2023-01-05T11:12:26.348Z,6.62
2023-01-05T11:14:59.770Z,6.72
2023-01-05T11:17:31.423Z,6.92
2023-01-05T11:20:02.554Z,7.08
2023-01-05T11:22:49.348Z,6.58
2023-01-05T11:25:34.461Z,6.65
2023-01-05T11:28:13.444Z,6.95
2023-01-05T11:30:50.319Z,6.80
2023-01-05T11:33:26.828Z,6.87
2023-01-05T11:35:58.780Z,6.55
2023-01-05T11:38:33.855Z,6.62
2023-01-05T11:41:05.355Z,6.10
2023-01-05T11:43:36.826Z,6.37
2023-01-05T11:46:11.829Z,6.35
2023-01-05T11:48:43.961Z,7.22
2023-01-05T11:54:06.761Z,8.30
2023-01-05T11:56:37.488Z,8.10
2023-01-05T11:59:10.808Z,7.72
2023-01-05T12:05:05.376Z,6.65
2023-01-05T12:07:38.208Z,5.90
2023-01-05T12:10:46.292Z,5.97
2023-01-05T12:13:34.556Z,6.55
2023-01-05T12:16:16.791Z,6.65
2023-01-05T12:19:05.005Z,6.75
2023-01-05T12:21:41.278Z,5.83
2023-01-05T12:24:20.203Z,5.37
2023-01-05T12:27:14.642Z,6.28
2023-01-05T12:35:36.207Z,4.60
2023-01-05T12:38:18.169Z,5.37
2023-01-05T12:41:14.181Z,4.03
2023-01-05T12:44:05.960Z,4.90
2023-01-05T12:47:06.927Z,4.62
2023-01-05T12:49:55.143Z,4.62
2023-01-05T12:52:34.297Z,4.45
2023-01-05T12:55:19.662Z,4.92
2023-01-05T12:57:57.128Z,4.67
2023-01-05T13:00:30.665Z,5.55
2023-01-05T13:03:19.100Z,4.95
2023-01-05T13:06:08.497Z,5.20
2023-01-05T13:08:47.573Z,5.05
2023-01-05T13:11:35.897Z,5.10
2023-01-05T13:14:14.820Z,5.17
2023-01-05T13:16:58.651Z,5.35
2023-01-05T13:19:42.609Z,5.33
2023-01-05T13:22:19.284Z,5.37
2023-01-05T13:25:10.908Z,5.70
2023-01-05T13:27:44.209Z,5.45
2023-01-05T13:30:30.202Z,5.58
2023-01-05T13:33:23.587Z,5.53
2023-01-05T13:36:26.224Z,5.22
2023-01-05T13:39:20.621Z,8.40
2023-01-05T13:42:04.648Z,5.62
2023-01-05T13:44:44.876Z,6.00
2023-01-05T13:47:45.196Z,5.75
2023-01-05T13:50:39.175Z,5.50
2023-01-05T13:56:07.033Z,5.33
2023-01-05T13:58:40.714Z,5.15
2023-01-05T14:01:19.774Z,5.60
2023-01-05T14:06:48.150Z,4.80
2023-01-05T14:09:28.038Z,4.97
2023-01-05T14:12:23.225Z,5.37
2023-01-05T14:15:17.806Z,4.83
2023-01-05T14:18:06.102Z,5.08
2023-01-05T14:20:57.262Z,4.67
2023-01-05T14:23:39.378Z,4.80
2023-01-05T14:26:12.998Z,5.08
2023-01-05T14:28:45.817Z,4.60
2023-01-05T14:31:26.501Z,4.35
2023-01-05T14:34:08.343Z,4.92
2023-01-05T14:36:43.249Z,4.87
2023-01-05T14:39:26.600Z,4.72
2023-01-05T14:42:15.805Z,5.00
2023-01-05T14:44:55.328Z,4.50
2023-01-05T14:47:49.986Z,4.78
2023-01-05T14:50:32.696Z,4.65
2023-01-05T14:53:16.917Z,5.20
2023-01-05T14:56:05.297Z,4.40
2023-01-05T14:58:44.636Z,4.67
2023-01-05T15:01:24.313Z,4.85
2023-01-05T15:03:57.592Z,4.25
2023-01-05T15:06:53.549Z,4.47
2023-01-05T15:09:29.799Z,3.87
2023-01-05T15:12:10.838Z,4.22
2023-01-05T15:18:02.244Z,3.92
2023-01-05T15:20:41.689Z,4.03
2023-01-05T15:23:34.397Z,4.17
2023-01-05T15:26:25.764Z,3.52
2023-01-05T15:29:15.392Z,3.50
2023-01-05T15:32:00.712Z,3.40
2023-01-05T15:34:33.961Z,3.67
2023-01-05T15:37:19.240Z,3.90
2023-01-05T15:39:52.545Z,3.72
2023-01-05T15:42:32.669Z,3.92
2023-01-05T15:45:03.920Z,4.00
2023-01-05T15:47:41.587Z,3.27
2023-01-05T15:50:30.104Z,3.58
2023-01-05T15:53:05.162Z,3.55
2023-01-05T15:55:36.849Z,4.30
2023-01-05T15:58:22.126Z,3.72
2023-01-05T16:01:19.118Z,4.03
2023-01-05T16:03:52.131Z,4.40
2023-01-05T16:06:31.743Z,4.00
2023-01-05T16:09:05.011Z,4.17
2023-01-05T16:11:41.625Z,3.98
2023-01-05T16:14:14.936Z,3.58
2023-01-05T16:19:53.778Z,3.90
2023-01-05T16:22:52.795Z,3.72
2023-01-05T16:25:33.954Z,3.70
2023-01-05T16:28:08.196Z,3.42
2023-01-05T16:30:41.083Z,3.55
2023-01-05T16:33:23.652Z,3.55
2023-01-05T16:35:56.878Z,3.55
2023-01-05T16:38:38.833Z,3.15
2023-01-05T16:41:28.225Z,3.27
2023-01-05T16:44:03.761Z,2.80
2023-01-05T16:46:42.876Z,3.47
2023-01-05T16:49:31.133Z,2.42
2023-01-05T16:52:03.247Z,3.00
2023-01-05T16:54:44.935Z,3.37
2023-01-05T16:57:34.512Z,2.52
2023-01-05T17:00:09.420Z,2.80
2023-01-05T17:02:48.621Z,2.83
2023-01-05T17:05:21.768Z,2.30
2023-01-05T17:07:57.608Z,2.67
2023-01-05T17:10:29.730Z,2.45
2023-01-05T17:13:08.759Z,2.70
2023-01-05T17:15:40.089Z,2.80
2023-01-05T17:20:54.840Z,2.77
2023-01-05T17:23:28.312Z,2.92
2023-01-05T17:26:01.503Z,2.65
2023-01-05T17:28:32.400Z,2.62
2023-01-05T17:31:03.392Z,2.87
2023-01-05T17:33:34.166Z,2.62
2023-01-05T17:36:05.535Z,3.00
2023-01-05T17:38:36.219Z,2.87
2023-01-05T17:41:07.152Z,2.40
2023-01-05T17:46:15.464Z,2.72
2023-01-05T17:48:46.573Z,3.08
2023-01-05T17:51:17.686Z,2.90
2023-01-05T17:53:48.459Z,2.80
2023-01-05T17:56:20.100Z,3.10
2023-01-05T17:58:51.715Z,3.08
2023-01-05T18:01:22.687Z,2.72
2023-01-05T18:03:53.503Z,2.72
2023-01-05T18:06:24.265Z,3.08
2023-01-05T18:08:55.088Z,3.08
2023-01-05T18:11:26.032Z,2.60
2023-01-05T18:13:56.870Z,2.80
2023-01-05T18:16:27.753Z,3.00
2023-01-05T18:18:58.600Z,2.75
2023-01-05T18:21:30.198Z,3.17
2023-01-05T18:24:00.896Z,2.60
2023-01-05T18:26:31.607Z,3.00
2023-01-05T18:29:02.419Z,2.80
2023-01-05T18:31:34.872Z,2.62
2023-01-05T18:34:05.477Z,2.98
2023-01-05T18:36:36.260Z,2.90
2023-01-05T18:39:07.995Z,2.72
2023-01-05T18:41:38.709Z,2.67
2023-01-05T18:44:09.561Z,2.70
2023-01-05T18:46:40.460Z,2.37
2023-01-05T18:49:12.608Z,2.85
2023-01-05T18:51:44.842Z,2.35
2023-01-05T18:54:16.128Z,3.12
2023-01-05T18:56:49.998Z,3.05
2023-01-05T18:59:22.741Z,3.47
2023-01-05T19:01:54.486Z,3.52
2023-01-05T19:04:25.353Z,5.60
2023-01-05T19:06:57.035Z,5.33
2023-01-05T19:09:31.732Z,3.92
2023-01-05T19:12:02.845Z,4.80
2023-01-05T19:14:33.797Z,6.40
2023-01-05T19:17:05.938Z,5.30
2023-01-05T19:19:36.601Z,5.28
2023-01-05T19:22:07.392Z,8.03
2023-01-05T19:24:40.521Z,6.42
2023-01-05T19:27:11.252Z,4.53
2023-01-05T19:29:43.426Z,6.12
2023-01-05T19:32:14.259Z,5.42
2023-01-05T19:34:51.111Z,4.00
2023-01-05T19:37:25.152Z,4.47
2023-01-05T19:39:55.940Z,4.00
2023-01-05T19:42:26.637Z,5.08
2023-01-05T19:44:57.458Z,8.25
2023-01-05T19:47:28.147Z,5.08
2023-01-05T19:49:59.056Z,5.22
2023-01-05T19:52:31.117Z,4.97
2023-01-05T19:55:01.826Z,4.47
2023-01-05T19:57:35.653Z,4.05
2023-01-05T20:00:08.665Z,5.00
2023-01-05T20:02:39.529Z,4.40
2023-01-05T20:05:11.335Z,5.40
2023-01-05T20:07:43.842Z,4.83
2023-01-05T20:10:15.686Z,4.75
2023-01-05T20:12:46.345Z,4.53
2023-01-05T20:15:17.240Z,4.53
2023-01-05T20:17:48.260Z,4.10
2023-01-05T20:20:19.093Z,3.70
2023-01-05T20:22:49.907Z,4.22
2023-01-05T20:25:20.994Z,3.80
2023-01-05T20:27:51.681Z,3.77
2023-01-05T20:30:22.697Z,5.28
2023-01-05T20:32:53.405Z,4.20
2023-01-05T20:35:24.338Z,4.12
2023-01-05T20:37:56.453Z,2.85
2023-01-05T20:40:27.298Z,2.95
2023-01-05T20:42:58.098Z,2.75
2023-01-05T20:45:28.971Z,2.60
2023-01-05T20:47:59.750Z,2.77
2023-01-05T20:50:30.541Z,2.72
2023-01-05T20:53:01.436Z,2.65
2023-01-05T20:55:32.378Z,2.45
2023-01-05T20:58:03.078Z,2.60
2023-01-05T21:00:34.003Z,2.67
2023-01-05T21:03:04.993Z,2.40
2023-01-05T21:05:35.762Z,2.67
2023-01-05T21:08:06.793Z,3.05
2023-01-05T21:10:39.846Z,2.52
2023-01-05T21:13:31.597Z,2.80
2023-01-05T21:15:43.049Z,3.45
2023-01-05T21:18:14.109Z,2.77
2023-01-05T21:20:46.467Z,2.90
2023-01-05T21:23:17.587Z,2.85
2023-01-05T21:26:05.716Z,3.05
2023-01-05T21:28:23.181Z,3.58
2023-01-05T21:30:54.231Z,3.02
2023-01-05T21:33:26.424Z,3.02
2023-01-05T21:35:57.560Z,3.72
2023-01-05T21:39:02.089Z,2.90
2023-01-05T21:41:11.437Z,3.12
2023-01-05T21:43:42.316Z,3.05
2023-01-05T21:46:14.619Z,3.12
2023-01-05T21:48:45.628Z,3.00
2023-01-05T21:51:34.091Z,3.00
2023-01-05T21:54:22.819Z,3.55
2023-01-05T21:56:55.029Z,3.25
2023-01-05T21:59:26.053Z,3.42
2023-01-05T22:01:57.284Z,3.12
2023-01-05T22:04:28.482Z,3.17
2023-01-05T22:06:59.624Z,3.70
2023-01-05T22:09:30.637Z,3.05
2023-01-05T22:12:01.663Z,2.83
2023-01-05T22:14:32.708Z,3.22
2023-01-05T22:17:03.730Z,2.87
2023-01-05T22:19:34.774Z,2.98
2023-01-05T22:22:05.829Z,4.00
2023-01-05T22:24:36.618Z,4.87
2023-01-05T22:27:07.620Z,5.10
2023-01-05T22:29:38.488Z,6.15
2023-01-05T22:32:09.396Z,5.95
2023-01-05T22:34:59.349Z,4.67
2023-01-05T22:37:30.058Z,4.60
2023-01-05T22:40:00.743Z,4.08
2023-01-05T22:42:42.873Z,4.20
2023-01-05T22:45:08.240Z,4.67
2023-01-05T22:47:39.119Z,4.53
2023-01-05T22:50:13.390Z,4.03
2023-01-05T22:52:44.107Z,4.30
2023-01-05T22:55:14.801Z,4.47
2023-01-05T22:57:45.486Z,4.47
2023-01-05T23:00:17.209Z,3.98
2023-01-05T23:02:47.912Z,4.50
2023-01-05T23:05:18.894Z,4.83
2023-01-05T23:07:50.020Z,5.35
2023-01-05T23:10:20.912Z,5.70
2023-01-05T23:12:51.607Z,4.67
2023-01-05T23:15:22.467Z,4.40
2023-01-05T23:17:53.186Z,4.75
2023-01-05T23:20:25.377Z,4.78
2023-01-05T23:22:56.157Z,4.22
2023-01-05T23:25:26.866Z,4.47
2023-01-05T23:27:57.729Z,4.35
2023-01-05T23:30:28.486Z,4.70
2023-01-05T23:32:59.186Z,4.58
2023-01-05T23:35:29.895Z,5.45
2023-01-05T23:38:00.631Z,5.90
2023-01-05T23:40:31.603Z,5.80
2023-01-05T23:43:02.356Z,5.40
2023-01-05T23:45:33.036Z,5.67
2023-01-05T23:48:05.087Z,5.58
2023-01-05T23:50:36.925Z,5.53
2023-01-05T23:53:07.653Z,6.45
2023-01-05T23:55:38.880Z,8.70
2023-01-05T23:58:10.588Z,7.97
